sensor_id;sensor_type;location;lat;lon;timestamp;P1;durP1;ratioP1;P2;durP2;ratioP2
75050;SDS011;63628;47.656;11.310;2022-09-29T00:00:59;1.20;;;0.30;;
75050;SDS011;63628;47.656;11.310;2022-09-29T00:03:27;0.30;;;0.20;;
75050;SDS011;63628;47.656;11.310;2022-09-29T00:05:54;0.10;;;0.10;;
75050;SDS011;63628;47.656;11.310;2022-09-29T00:08:23;0.30;;;0.20;;
75050;SDS011;63628;47.656;11.310;2022-09-29T00:10:52;0.32;;;0.17;;
75050;SDS011;63628;47.656;11.310;2022-09-29T00:13:18;0.20;;;0.20;;
75050;SDS011;63628;47.656;11.310;2022-09-29T00:15:53;0.40;;;0.20;;
75050;SDS011;63628;47.656;11.310;2022-09-29T00:18:21;0.20;;;0.15;;
75050;SDS011;63628;47.656;11.310;2022-09-29T00:23:35;0.52;;;0.20;;
75050;SDS011;63628;47.656;11.310;2022-09-29T00:26:09;0.10;;;0.10;;
75050;SDS011;63628;47.656;11.310;2022-09-29T00:28:36;0.20;;;0.20;;
75050;SDS011;63628;47.656;11.310;2022-09-29T00:31:05;0.20;;;0.20;;
75050;SDS011;63628;47.656;11.310;2022-09-29T00:33:34;0.10;;;0.00;;
75050;SDS011;63628;47.656;11.310;2022-09-29T00:36:06;0.63;;;0.20;;
75050;SDS011;63628;47.656;11.310;2022-09-29T00:38:34;0.00;;;0.00;;
75050;SDS011;63628;47.656;11.310;2022-09-29T00:41:02;0.10;;;0.10;;
75050;SDS011;63628;47.656;11.310;2022-09-29T00:46:11;0.10;;;0.10;;
75050;SDS011;63628;47.656;11.310;2022-09-29T00:48:39;0.28;;;0.17;;
75050;SDS011;63628;47.656;11.310;2022-09-29T00:51:06;0.55;;;0.20;;
75050;SDS011;63628;47.656;11.310;2022-09-29T00:53:33;0.22;;;0.10;;
75050;SDS011;63628;47.656;11.310;2022-09-29T00:56:23;0.75;;;0.13;;
75050;SDS011;63628;47.656;11.310;2022-09-29T00:58:57;0.63;;;0.20;;
75050;SDS011;63628;47.656;11.310;2022-09-29T01:01:28;0.30;;;0.20;;
75050;SDS011;63628;47.656;11.310;2022-09-29T01:03:58;0.20;;;0.10;;
75050;SDS011;63628;47.656;11.310;2022-09-29T01:06:32;0.85;;;0.13;;
75050;SDS011;63628;47.656;11.310;2022-09-29T01:09:03;0.32;;;0.20;;
75050;SDS011;63628;47.656;11.310;2022-09-29T01:11:33;0.40;;;0.20;;
75050;SDS011;63628;47.656;11.310;2022-09-29T01:14:01;0.20;;;0.13;;
75050;SDS011;63628;47.656;11.310;2022-09-29T01:16:32;0.20;;;0.10;;
75050;SDS011;63628;47.656;11.310;2022-09-29T01:19:00;0.10;;;0.10;;
75050;SDS011;63628;47.656;11.310;2022-09-29T01:21:40;0.25;;;0.25;;
75050;SDS011;63628;47.656;11.310;2022-09-29T01:32:42;2.85;;;0.57;;
75050;SDS011;63628;47.656;11.310;2022-09-29T01:36:00;0.30;;;0.10;;
75050;SDS011;63628;47.656;11.310;2022-09-29T01:38:54;0.32;;;0.10;;
75050;SDS011;63628;47.656;11.310;2022-09-29T01:41:32;0.00;;;0.00;;
75050;SDS011;63628;47.656;11.310;2022-09-29T01:44:20;0.10;;;0.10;;
75050;SDS011;63628;47.656;11.310;2022-09-29T01:46:53;0.10;;;0.10;;
75050;SDS011;63628;47.656;11.310;2022-09-29T01:49:25;0.38;;;0.10;;
75050;SDS011;63628;47.656;11.310;2022-09-29T01:52:02;0.85;;;0.20;;
75050;SDS011;63628;47.656;11.310;2022-09-29T02:00:13;0.20;;;0.10;;
75050;SDS011;63628;47.656;11.310;2022-09-29T02:02:49;0.13;;;0.10;;
75050;SDS011;63628;47.656;11.310;2022-09-29T02:05:24;0.10;;;0.10;;
75050;SDS011;63628;47.656;11.310;2022-09-29T02:07:57;0.10;;;0.10;;
75050;SDS011;63628;47.656;11.310;2022-09-29T02:10:44;0.13;;;0.10;;
75050;SDS011;63628;47.656;11.310;2022-09-29T02:13:16;0.52;;;0.17;;
75050;SDS011;63628;47.656;11.310;2022-09-29T02:15:45;0.30;;;0.08;;
75050;SDS011;63628;47.656;11.310;2022-09-29T02:18:21;0.40;;;0.10;;
75050;SDS011;63628;47.656;11.310;2022-09-29T02:20:49;0.00;;;0.00;;
75050;SDS011;63628;47.656;11.310;2022-09-29T02:23:16;0.20;;;0.10;;
75050;SDS011;63628;47.656;11.310;2022-09-29T02:25:43;0.47;;;0.10;;
75050;SDS011;63628;47.656;11.310;2022-09-29T02:28:13;0.32;;;0.03;;
75050;SDS011;63628;47.656;11.310;2022-09-29T02:30:40;0.20;;;0.10;;
75050;SDS011;63628;47.656;11.310;2022-09-29T02:33:17;0.00;;;0.00;;
75050;SDS011;63628;47.656;11.310;2022-09-29T02:35:47;0.00;;;0.00;;
75050;SDS011;63628;47.656;11.310;2022-09-29T02:38:29;0.10;;;0.10;;
75050;SDS011;63628;47.656;11.310;2022-09-29T02:44:00;0.45;;;0.10;;
75050;SDS011;63628;47.656;11.310;2022-09-29T02:52:50;0.10;;;0.10;;
75050;SDS011;63628;47.656;11.310;2022-09-29T02:55:24;0.10;;;0.10;;
75050;SDS011;63628;47.656;11.310;2022-09-29T02:58:11;0.10;;;0.10;;
75050;SDS011;63628;47.656;11.310;2022-09-29T03:00:43;0.10;;;0.10;;
75050;SDS011;63628;47.656;11.310;2022-09-29T03:03:10;0.10;;;0.00;;
75050;SDS011;63628;47.656;11.310;2022-09-29T03:05:37;0.10;;;0.10;;
75050;SDS011;63628;47.656;11.310;2022-09-29T03:08:04;0.15;;;0.10;;
75050;SDS011;63628;47.656;11.310;2022-09-29T03:10:30;1.60;;;0.15;;
75050;SDS011;63628;47.656;11.310;2022-09-29T03:12:57;0.03;;;0.03;;
75050;SDS011;63628;47.656;11.310;2022-09-29T03:15:23;0.00;;;0.00;;
75050;SDS011;63628;47.656;11.310;2022-09-29T03:17:50;0.10;;;0.03;;
75050;SDS011;63628;47.656;11.310;2022-09-29T03:20:21;0.00;;;0.00;;
75050;SDS011;63628;47.656;11.310;2022-09-29T03:22:48;0.05;;;0.05;;
75050;SDS011;63628;47.656;11.310;2022-09-29T03:25:15;0.17;;;0.10;;
75050;SDS011;63628;47.656;11.310;2022-09-29T03:27:42;0.00;;;0.00;;
75050;SDS011;63628;47.656;11.310;2022-09-29T03:30:10;0.10;;;0.00;;
75050;SDS011;63628;47.656;11.310;2022-09-29T03:32:37;0.00;;;0.00;;
75050;SDS011;63628;47.656;11.310;2022-09-29T03:35:04;0.00;;;0.00;;
75050;SDS011;63628;47.656;11.310;2022-09-29T03:37:31;0.10;;;0.00;;
75050;SDS011;63628;47.656;11.310;2022-09-29T03:39:57;0.08;;;0.08;;
75050;SDS011;63628;47.656;11.310;2022-09-29T03:42:23;0.00;;;0.00;;
75050;SDS011;63628;47.656;11.310;2022-09-29T03:44:50;0.00;;;0.00;;
75050;SDS011;63628;47.656;11.310;2022-09-29T03:47:16;0.05;;;0.05;;
75050;SDS011;63628;47.656;11.310;2022-09-29T03:49:43;0.00;;;0.00;;
75050;SDS011;63628;47.656;11.310;2022-09-29T03:52:09;0.10;;;0.10;;
75050;SDS011;63628;47.656;11.310;2022-09-29T03:54:36;0.20;;;0.10;;
75050;SDS011;63628;47.656;11.310;2022-09-29T03:57:02;0.73;;;0.10;;
75050;SDS011;63628;47.656;11.310;2022-09-29T03:59:29;0.10;;;0.10;;
75050;SDS011;63628;47.656;11.310;2022-09-29T04:01:55;0.20;;;0.13;;
75050;SDS011;63628;47.656;11.310;2022-09-29T04:04:22;0.10;;;0.10;;
75050;SDS011;63628;47.656;11.310;2022-09-29T04:06:48;0.10;;;0.10;;
75050;SDS011;63628;47.656;11.310;2022-09-29T04:09:15;0.08;;;0.08;;
75050;SDS011;63628;47.656;11.310;2022-09-29T04:11:41;0.73;;;0.10;;
75050;SDS011;63628;47.656;11.310;2022-09-29T04:14:08;0.10;;;0.10;;
75050;SDS011;63628;47.656;11.310;2022-09-29T04:16:34;0.10;;;0.00;;
75050;SDS011;63628;47.656;11.310;2022-09-29T04:19:01;0.13;;;0.00;;
75050;SDS011;63628;47.656;11.310;2022-09-29T04:21:27;0.10;;;0.00;;
75050;SDS011;63628;47.656;11.310;2022-09-29T04:23:54;0.08;;;0.05;;
75050;SDS011;63628;47.656;11.310;2022-09-29T04:26:20;0.00;;;0.00;;
75050;SDS011;63628;47.656;11.310;2022-09-29T04:28:47;0.50;;;0.30;;
75050;SDS011;63628;47.656;11.310;2022-09-29T04:31:14;3.90;;;3.65;;
75050;SDS011;63628;47.656;11.310;2022-09-29T04:33:40;0.30;;;0.20;;
75050;SDS011;63628;47.656;11.310;2022-09-29T04:36:07;0.75;;;0.32;;
75050;SDS011;63628;47.656;11.310;2022-09-29T04:38:33;0.20;;;0.20;;
75050;SDS011;63628;47.656;11.310;2022-09-29T04:41:00;0.20;;;0.20;;
75050;SDS011;63628;47.656;11.310;2022-09-29T04:43:27;0.10;;;0.08;;
75050;SDS011;63628;47.656;11.310;2022-09-29T04:45:59;0.20;;;0.20;;
75050;SDS011;63628;47.656;11.310;2022-09-29T04:48:27;0.30;;;0.20;;
75050;SDS011;63628;47.656;11.310;2022-09-29T04:51:00;0.20;;;0.20;;
75050;SDS011;63628;47.656;11.310;2022-09-29T04:53:27;0.20;;;0.20;;
75050;SDS011;63628;47.656;11.310;2022-09-29T04:55:53;0.43;;;0.20;;
75050;SDS011;63628;47.656;11.310;2022-09-29T04:58:20;0.20;;;0.20;;
75050;SDS011;63628;47.656;11.310;2022-09-29T05:00:46;0.22;;;0.15;;
75050;SDS011;63628;47.656;11.310;2022-09-29T05:03:13;0.20;;;0.20;;
75050;SDS011;63628;47.656;11.310;2022-09-29T05:05:39;0.20;;;0.10;;
75050;SDS011;63628;47.656;11.310;2022-09-29T05:08:06;0.32;;;0.30;;
75050;SDS011;63628;47.656;11.310;2022-09-29T05:10:32;0.10;;;0.10;;
75050;SDS011;63628;47.656;11.310;2022-09-29T05:12:59;0.22;;;0.10;;
75050;SDS011;63628;47.656;11.310;2022-09-29T05:15:25;0.20;;;0.20;;
75050;SDS011;63628;47.656;11.310;2022-09-29T05:17:52;0.20;;;0.20;;
75050;SDS011;63628;47.656;11.310;2022-09-29T05:20:18;0.20;;;0.20;;
75050;SDS011;63628;47.656;11.310;2022-09-29T05:22:45;0.20;;;0.20;;
75050;SDS011;63628;47.656;11.310;2022-09-29T05:25:11;0.20;;;0.20;;
75050;SDS011;63628;47.656;11.310;2022-09-29T05:27:37;0.20;;;0.20;;
75050;SDS011;63628;47.656;11.310;2022-09-29T05:30:04;0.20;;;0.15;;
75050;SDS011;63628;47.656;11.310;2022-09-29T05:32:31;0.13;;;0.13;;
75050;SDS011;63628;47.656;11.310;2022-09-29T05:34:57;0.38;;;0.25;;
75050;SDS011;63628;47.656;11.310;2022-09-29T05:37:24;0.20;;;0.17;;
75050;SDS011;63628;47.656;11.310;2022-09-29T05:39:51;0.32;;;0.20;;
75050;SDS011;63628;47.656;11.310;2022-09-29T05:42:17;0.38;;;0.20;;
75050;SDS011;63628;47.656;11.310;2022-09-29T05:44:44;0.20;;;0.10;;
75050;SDS011;63628;47.656;11.310;2022-09-29T05:47:10;0.10;;;0.10;;
75050;SDS011;63628;47.656;11.310;2022-09-29T05:49:36;0.32;;;0.20;;
75050;SDS011;63628;47.656;11.310;2022-09-29T05:52:04;0.43;;;0.25;;
75050;SDS011;63628;47.656;11.310;2022-09-29T05:54:30;0.15;;;0.13;;
75050;SDS011;63628;47.656;11.310;2022-09-29T05:56:56;0.45;;;0.25;;
75050;SDS011;63628;47.656;11.310;2022-09-29T05:59:23;0.00;;;0.00;;
75050;SDS011;63628;47.656;11.310;2022-09-29T06:01:49;0.10;;;0.10;;
75050;SDS011;63628;47.656;11.310;2022-09-29T06:04:16;0.30;;;0.15;;
75050;SDS011;63628;47.656;11.310;2022-09-29T06:06:43;0.10;;;0.10;;
75050;SDS011;63628;47.656;11.310;2022-09-29T06:09:09;0.30;;;0.20;;
75050;SDS011;63628;47.656;11.310;2022-09-29T06:11:36;0.10;;;0.10;;
75050;SDS011;63628;47.656;11.310;2022-09-29T06:14:02;0.20;;;0.20;;
75050;SDS011;63628;47.656;11.310;2022-09-29T06:16:29;0.15;;;0.15;;
75050;SDS011;63628;47.656;11.310;2022-09-29T06:19:00;0.10;;;0.10;;
75050;SDS011;63628;47.656;11.310;2022-09-29T06:21:28;0.10;;;0.10;;
75050;SDS011;63628;47.656;11.310;2022-09-29T06:23:56;0.10;;;0.10;;
75050;SDS011;63628;47.656;11.310;2022-09-29T06:26:23;0.10;;;0.10;;
75050;SDS011;63628;47.656;11.310;2022-09-29T06:28:52;0.30;;;0.17;;
75050;SDS011;63628;47.656;11.310;2022-09-29T06:31:21;0.28;;;0.20;;
75050;SDS011;63628;47.656;11.310;2022-09-29T06:36:16;0.32;;;0.20;;
75050;SDS011;63628;47.656;11.310;2022-09-29T06:39:05;0.20;;;0.20;;
75050;SDS011;63628;47.656;11.310;2022-09-29T06:41:33;0.38;;;0.28;;
75050;SDS011;63628;47.656;11.310;2022-09-29T06:44:00;0.13;;;0.13;;
75050;SDS011;63628;47.656;11.310;2022-09-29T06:46:28;0.20;;;0.20;;
75050;SDS011;63628;47.656;11.310;2022-09-29T06:48:55;0.70;;;0.68;;
75050;SDS011;63628;47.656;11.310;2022-09-29T06:51:22;0.45;;;0.30;;
75050;SDS011;63628;47.656;11.310;2022-09-29T06:54:03;0.20;;;0.20;;
75050;SDS011;63628;47.656;11.310;2022-09-29T06:56:37;0.82;;;0.60;;
75050;SDS011;63628;47.656;11.310;2022-09-29T06:59:05;0.30;;;0.30;;
75050;SDS011;63628;47.656;11.310;2022-09-29T07:01:31;0.20;;;0.20;;
75050;SDS011;63628;47.656;11.310;2022-09-29T07:03:58;2.00;;;0.30;;
75050;SDS011;63628;47.656;11.310;2022-09-29T07:08:55;0.40;;;0.30;;
75050;SDS011;63628;47.656;11.310;2022-09-29T07:11:23;0.13;;;0.10;;
75050;SDS011;63628;47.656;11.310;2022-09-29T07:13:51;1.10;;;0.85;;
75050;SDS011;63628;47.656;11.310;2022-09-29T07:16:20;2.22;;;0.45;;
75050;SDS011;63628;47.656;11.310;2022-09-29T07:18:49;0.60;;;0.50;;
75050;SDS011;63628;47.656;11.310;2022-09-29T07:21:16;0.50;;;0.50;;
75050;SDS011;63628;47.656;11.310;2022-09-29T07:23:44;0.85;;;0.65;;
75050;SDS011;63628;47.656;11.310;2022-09-29T07:26:12;0.52;;;0.52;;
75050;SDS011;63628;47.656;11.310;2022-09-29T07:28:39;0.40;;;0.40;;
75050;SDS011;63628;47.656;11.310;2022-09-29T07:31:06;0.55;;;0.50;;
75050;SDS011;63628;47.656;11.310;2022-09-29T07:33:40;0.40;;;0.40;;
75050;SDS011;63628;47.656;11.310;2022-09-29T07:36:07;0.90;;;0.40;;
75050;SDS011;63628;47.656;11.310;2022-09-29T07:38:34;0.30;;;0.30;;
75050;SDS011;63628;47.656;11.310;2022-09-29T07:41:05;0.30;;;0.20;;
75050;SDS011;63628;47.656;11.310;2022-09-29T07:43:33;0.98;;;0.25;;
75050;SDS011;63628;47.656;11.310;2022-09-29T07:46:00;0.40;;;0.40;;
75050;SDS011;63628;47.656;11.310;2022-09-29T07:48:27;1.02;;;0.40;;
75050;SDS011;63628;47.656;11.310;2022-09-29T07:51:05;0.55;;;0.50;;
75050;SDS011;63628;47.656;11.310;2022-09-29T07:53:33;1.75;;;0.40;;
75050;SDS011;63628;47.656;11.310;2022-09-29T07:56:02;0.83;;;0.50;;
75050;SDS011;63628;47.656;11.310;2022-09-29T07:58:37;1.23;;;0.40;;
75050;SDS011;63628;47.656;11.310;2022-09-29T08:01:05;0.40;;;0.40;;
75050;SDS011;63628;47.656;11.310;2022-09-29T08:03:36;3.30;;;1.60;;
75050;SDS011;63628;47.656;11.310;2022-09-29T08:06:04;1.73;;;0.40;;
75050;SDS011;63628;47.656;11.310;2022-09-29T08:08:35;0.50;;;0.50;;
75050;SDS011;63628;47.656;11.310;2022-09-29T08:11:10;2.70;;;0.50;;
75050;SDS011;63628;47.656;11.310;2022-09-29T08:13:53;1.80;;;1.20;;
75050;SDS011;63628;47.656;11.310;2022-09-29T08:16:19;0.47;;;0.47;;
75050;SDS011;63628;47.656;11.310;2022-09-29T08:18:46;0.45;;;0.35;;
75050;SDS011;63628;47.656;11.310;2022-09-29T08:21:12;0.80;;;0.57;;
75050;SDS011;63628;47.656;11.310;2022-09-29T08:23:41;0.30;;;0.20;;
75050;SDS011;63628;47.656;11.310;2022-09-29T08:26:13;1.67;;;0.50;;
75050;SDS011;63628;47.656;11.310;2022-09-29T08:28:41;0.20;;;0.20;;
75050;SDS011;63628;47.656;11.310;2022-09-29T08:31:13;1.55;;;0.40;;
75050;SDS011;63628;47.656;11.310;2022-09-29T08:33:47;2.08;;;0.43;;
75050;SDS011;63628;47.656;11.310;2022-09-29T08:36:18;2.53;;;0.43;;
75050;SDS011;63628;47.656;11.310;2022-09-29T08:38:46;0.63;;;0.63;;
75050;SDS011;63628;47.656;11.310;2022-09-29T08:44:11;1.70;;;0.50;;
75050;SDS011;63628;47.656;11.310;2022-09-29T08:49:40;1.13;;;0.60;;
75050;SDS011;63628;47.656;11.310;2022-09-29T08:52:15;0.50;;;0.40;;
75050;SDS011;63628;47.656;11.310;2022-09-29T08:54:46;2.40;;;0.60;;
75050;SDS011;63628;47.656;11.310;2022-09-29T08:57:17;1.05;;;0.50;;
75050;SDS011;63628;47.656;11.310;2022-09-29T08:59:52;2.25;;;0.40;;
75050;SDS011;63628;47.656;11.310;2022-09-29T09:05:29;0.60;;;0.52;;
75050;SDS011;63628;47.656;11.310;2022-09-29T09:10:48;0.30;;;0.30;;
75050;SDS011;63628;47.656;11.310;2022-09-29T09:16:08;0.50;;;0.50;;
75050;SDS011;63628;47.656;11.310;2022-09-29T09:21:28;0.75;;;0.60;;
75050;SDS011;63628;47.656;11.310;2022-09-29T09:24:13;0.45;;;0.40;;
75050;SDS011;63628;47.656;11.310;2022-09-29T09:26:46;0.50;;;0.40;;
75050;SDS011;63628;47.656;11.310;2022-09-29T09:32:07;1.00;;;0.55;;
75050;SDS011;63628;47.656;11.310;2022-09-29T09:34:42;0.47;;;0.30;;
75050;SDS011;63628;47.656;11.310;2022-09-29T09:37:14;0.90;;;0.60;;
75050;SDS011;63628;47.656;11.310;2022-09-29T09:42:29;1.30;;;0.50;;
75050;SDS011;63628;47.656;11.310;2022-09-29T09:44:59;1.52;;;0.68;;
75050;SDS011;63628;47.656;11.310;2022-09-29T09:47:32;0.52;;;0.50;;
75050;SDS011;63628;47.656;11.310;2022-09-29T09:50:13;0.98;;;0.40;;
75050;SDS011;63628;47.656;11.310;2022-09-29T09:55:17;2.00;;;0.60;;
75050;SDS011;63628;47.656;11.310;2022-09-29T10:00:57;0.80;;;0.57;;
75050;SDS011;63628;47.656;11.310;2022-09-29T10:03:28;1.45;;;0.65;;
75050;SDS011;63628;47.656;11.310;2022-09-29T10:05:55;0.52;;;0.50;;
75050;SDS011;63628;47.656;11.310;2022-09-29T10:08:26;0.35;;;0.35;;
75050;SDS011;63628;47.656;11.310;2022-09-29T10:10:56;0.40;;;0.40;;
75050;SDS011;63628;47.656;11.310;2022-09-29T10:13:26;1.17;;;0.50;;
75050;SDS011;63628;47.656;11.310;2022-09-29T10:18:38;2.25;;;0.80;;
75050;SDS011;63628;47.656;11.310;2022-09-29T10:21:19;0.90;;;0.85;;
75050;SDS011;63628;47.656;11.310;2022-09-29T10:23:52;0.90;;;0.80;;
75050;SDS011;63628;47.656;11.310;2022-09-29T10:32:09;2.53;;;1.10;;
75050;SDS011;63628;47.656;11.310;2022-09-29T10:34:39;1.55;;;0.90;;
75050;SDS011;63628;47.656;11.310;2022-09-29T10:39:44;1.13;;;0.70;;
75050;SDS011;63628;47.656;11.310;2022-09-29T10:44:54;2.90;;;0.75;;
75050;SDS011;63628;47.656;11.310;2022-09-29T10:47:27;1.20;;;0.60;;
75050;SDS011;63628;47.656;11.310;2022-09-29T10:52:51;0.73;;;0.45;;
75050;SDS011;63628;47.656;11.310;2022-09-29T10:55:29;1.00;;;0.90;;
75050;SDS011;63628;47.656;11.310;2022-09-29T10:57:59;0.55;;;0.55;;
75050;SDS011;63628;47.656;11.310;2022-09-29T11:00:30;0.70;;;0.43;;
75050;SDS011;63628;47.656;11.310;2022-09-29T11:03:02;0.70;;;0.40;;
75050;SDS011;63628;47.656;11.310;2022-09-29T11:05:53;0.40;;;0.38;;
75050;SDS011;63628;47.656;11.310;2022-09-29T11:08:24;2.53;;;0.82;;
75050;SDS011;63628;47.656;11.310;2022-09-29T11:11:06;1.30;;;0.47;;
75050;SDS011;63628;47.656;11.310;2022-09-29T11:13:45;0.57;;;0.50;;
75050;SDS011;63628;47.656;11.310;2022-09-29T11:16:15;0.95;;;0.60;;
75050;SDS011;63628;47.656;11.310;2022-09-29T11:18:44;0.50;;;0.30;;
75050;SDS011;63628;47.656;11.310;2022-09-29T11:21:21;0.77;;;0.45;;
75050;SDS011;63628;47.656;11.310;2022-09-29T11:32:00;1.25;;;0.43;;
75050;SDS011;63628;47.656;11.310;2022-09-29T11:37:30;0.40;;;0.30;;
75050;SDS011;63628;47.656;11.310;2022-09-29T11:40:16;0.52;;;0.50;;
75050;SDS011;63628;47.656;11.310;2022-09-29T11:45:19;0.50;;;0.50;;
75050;SDS011;63628;47.656;11.310;2022-09-29T11:53:19;0.80;;;0.30;;
75050;SDS011;63628;47.656;11.310;2022-09-29T11:56:18;0.98;;;0.38;;
75050;SDS011;63628;47.656;11.310;2022-09-29T11:59:06;0.32;;;0.30;;
75050;SDS011;63628;47.656;11.310;2022-09-29T12:04:55;0.30;;;0.30;;
75050;SDS011;63628;47.656;11.310;2022-09-29T12:07:40;0.40;;;0.30;;
75050;SDS011;63628;47.656;11.310;2022-09-29T12:10:41;0.38;;;0.30;;
75050;SDS011;63628;47.656;11.310;2022-09-29T12:15:52;0.73;;;0.30;;
75050;SDS011;63628;47.656;11.310;2022-09-29T12:23:58;0.35;;;0.30;;
75050;SDS011;63628;47.656;11.310;2022-09-29T12:26:28;0.38;;;0.30;;
75050;SDS011;63628;47.656;11.310;2022-09-29T12:29:00;0.30;;;0.30;;
75050;SDS011;63628;47.656;11.310;2022-09-29T12:31:34;0.40;;;0.40;;
75050;SDS011;63628;47.656;11.310;2022-09-29T12:34:17;0.30;;;0.30;;
75050;SDS011;63628;47.656;11.310;2022-09-29T12:36:52;0.38;;;0.38;;
75050;SDS011;63628;47.656;11.310;2022-09-29T12:42:11;0.30;;;0.30;;
75050;SDS011;63628;47.656;11.310;2022-09-29T12:45:01;0.43;;;0.30;;
75050;SDS011;63628;47.656;11.310;2022-09-29T12:50:31;0.52;;;0.40;;
75050;SDS011;63628;47.656;11.310;2022-09-29T12:55:54;0.30;;;0.30;;
75050;SDS011;63628;47.656;11.310;2022-09-29T12:58:29;0.30;;;0.30;;
75050;SDS011;63628;47.656;11.310;2022-09-29T13:01:14;0.70;;;0.30;;
75050;SDS011;63628;47.656;11.310;2022-09-29T13:06:31;0.40;;;0.25;;
75050;SDS011;63628;47.656;11.310;2022-09-29T13:12:32;0.43;;;0.30;;
75050;SDS011;63628;47.656;11.310;2022-09-29T13:18:27;0.70;;;0.50;;
75050;SDS011;63628;47.656;11.310;2022-09-29T13:21:28;0.20;;;0.20;;
75050;SDS011;63628;47.656;11.310;2022-09-29T13:29:56;0.77;;;0.30;;
75050;SDS011;63628;47.656;11.310;2022-09-29T13:32:28;2.00;;;1.13;;
75050;SDS011;63628;47.656;11.310;2022-09-29T13:34:56;1.13;;;0.80;;
75050;SDS011;63628;47.656;11.310;2022-09-29T13:37:26;0.95;;;0.70;;
75050;SDS011;63628;47.656;11.310;2022-09-29T13:40:03;1.05;;;0.93;;
75050;SDS011;63628;47.656;11.310;2022-09-29T13:42:38;0.85;;;0.38;;
75050;SDS011;63628;47.656;11.310;2022-09-29T13:47:57;1.20;;;1.00;;
75050;SDS011;63628;47.656;11.310;2022-09-29T13:53:32;0.32;;;0.30;;
75050;SDS011;63628;47.656;11.310;2022-09-29T14:00:58;0.82;;;0.40;;
75050;SDS011;63628;47.656;11.310;2022-09-29T14:03:39;0.20;;;0.20;;
75050;SDS011;63628;47.656;11.310;2022-09-29T14:06:14;0.30;;;0.30;;
75050;SDS011;63628;47.656;11.310;2022-09-29T14:09:20;0.30;;;0.30;;
75050;SDS011;63628;47.656;11.310;2022-09-29T14:11:57;0.93;;;0.80;;
75050;SDS011;63628;47.656;11.310;2022-09-29T14:14:33;0.30;;;0.30;;
75050;SDS011;63628;47.656;11.310;2022-09-29T14:17:14;0.40;;;0.30;;
75050;SDS011;63628;47.656;11.310;2022-09-29T14:33:19;0.73;;;0.40;;
75050;SDS011;63628;47.656;11.310;2022-09-29T14:41:31;0.40;;;0.25;;
75050;SDS011;63628;47.656;11.310;2022-09-29T14:47:22;0.52;;;0.50;;
75050;SDS011;63628;47.656;11.310;2022-09-29T14:58:51;0.60;;;0.60;;
75050;SDS011;63628;47.656;11.310;2022-09-29T15:01:29;0.30;;;0.30;;
75050;SDS011;63628;47.656;11.310;2022-09-29T15:04:04;0.93;;;0.30;;
75050;SDS011;63628;47.656;11.310;2022-09-29T15:06:44;0.40;;;0.38;;
75050;SDS011;63628;47.656;11.310;2022-09-29T15:09:15;1.95;;;0.50;;
75050;SDS011;63628;47.656;11.310;2022-09-29T15:27:57;1.65;;;0.65;;
75050;SDS011;63628;47.656;11.310;2022-09-29T15:30:27;1.17;;;0.73;;
75050;SDS011;63628;47.656;11.310;2022-09-29T15:33:03;0.47;;;0.47;;
75050;SDS011;63628;47.656;11.310;2022-09-29T15:35:41;1.50;;;0.82;;
75050;SDS011;63628;47.656;11.310;2022-09-29T15:40:55;0.50;;;0.50;;
75050;SDS011;63628;47.656;11.310;2022-09-29T15:43:27;0.95;;;0.60;;
75050;SDS011;63628;47.656;11.310;2022-09-29T15:52:05;1.30;;;1.02;;
75050;SDS011;63628;47.656;11.310;2022-09-29T15:54:37;1.83;;;1.05;;
75050;SDS011;63628;47.656;11.310;2022-09-29T16:05:44;0.82;;;0.65;;
75050;SDS011;63628;47.656;11.310;2022-09-29T16:08:22;0.60;;;0.60;;
75050;SDS011;63628;47.656;11.310;2022-09-29T16:10:55;0.80;;;0.70;;
75050;SDS011;63628;47.656;11.310;2022-09-29T16:13:27;0.70;;;0.57;;
75050;SDS011;63628;47.656;11.310;2022-09-29T16:15:59;0.40;;;0.40;;
75050;SDS011;63628;47.656;11.310;2022-09-29T16:18:41;1.02;;;0.63;;
75050;SDS011;63628;47.656;11.310;2022-09-29T16:21:21;0.60;;;0.60;;
75050;SDS011;63628;47.656;11.310;2022-09-29T16:23:50;2.35;;;0.70;;
75050;SDS011;63628;47.656;11.310;2022-09-29T16:31:36;1.08;;;0.80;;
75050;SDS011;63628;47.656;11.310;2022-09-29T16:34:19;0.90;;;0.70;;
75050;SDS011;63628;47.656;11.310;2022-09-29T16:36:48;0.63;;;0.60;;
75050;SDS011;63628;47.656;11.310;2022-09-29T16:39:25;0.70;;;0.63;;
75050;SDS011;63628;47.656;11.310;2022-09-29T16:41:53;0.90;;;0.77;;
75050;SDS011;63628;47.656;11.310;2022-09-29T16:44:23;0.68;;;0.60;;
75050;SDS011;63628;47.656;11.310;2022-09-29T16:49:33;1.40;;;0.95;;
75050;SDS011;63628;47.656;11.310;2022-09-29T16:52:23;1.30;;;0.98;;
75050;SDS011;63628;47.656;11.310;2022-09-29T16:54:53;1.00;;;0.70;;
75050;SDS011;63628;47.656;11.310;2022-09-29T16:57:31;1.70;;;0.90;;
75050;SDS011;63628;47.656;11.310;2022-09-29T17:00:00;3.05;;;0.93;;
75050;SDS011;63628;47.656;11.310;2022-09-29T17:02:32;1.70;;;0.98;;
75050;SDS011;63628;47.656;11.310;2022-09-29T17:04:58;1.88;;;1.00;;
75050;SDS011;63628;47.656;11.310;2022-09-29T17:07:26;3.33;;;1.08;;
75050;SDS011;63628;47.656;11.310;2022-09-29T17:09:54;2.03;;;1.02;;
75050;SDS011;63628;47.656;11.310;2022-09-29T17:12:23;2.63;;;1.27;;
75050;SDS011;63628;47.656;11.310;2022-09-29T17:14:51;2.38;;;1.05;;
75050;SDS011;63628;47.656;11.310;2022-09-29T17:17:25;2.92;;;1.35;;
75050;SDS011;63628;47.656;11.310;2022-09-29T17:19:53;4.20;;;1.60;;
75050;SDS011;63628;47.656;11.310;2022-09-29T17:22:29;4.18;;;1.70;;
75050;SDS011;63628;47.656;11.310;2022-09-29T17:24:56;5.05;;;2.40;;
75050;SDS011;63628;47.656;11.310;2022-09-29T17:27:23;3.15;;;1.50;;
75050;SDS011;63628;47.656;11.310;2022-09-29T17:30:09;5.20;;;2.03;;
75050;SDS011;63628;47.656;11.310;2022-09-29T17:32:39;3.78;;;1.60;;
75050;SDS011;63628;47.656;11.310;2022-09-29T17:35:07;3.10;;;2.05;;
75050;SDS011;63628;47.656;11.310;2022-09-29T17:37:37;3.25;;;1.65;;
75050;SDS011;63628;47.656;11.310;2022-09-29T17:40:21;4.43;;;1.63;;
75050;SDS011;63628;47.656;11.310;2022-09-29T17:42:50;4.07;;;1.83;;
75050;SDS011;63628;47.656;11.310;2022-09-29T17:45:18;3.15;;;1.58;;
75050;SDS011;63628;47.656;11.310;2022-09-29T17:47:46;2.33;;;1.38;;
75050;SDS011;63628;47.656;11.310;2022-09-29T17:50:17;2.55;;;1.33;;
75050;SDS011;63628;47.656;11.310;2022-09-29T17:52:49;3.08;;;1.25;;
75050;SDS011;63628;47.656;11.310;2022-09-29T17:55:16;3.92;;;1.90;;
75050;SDS011;63628;47.656;11.310;2022-09-29T17:57:43;2.40;;;1.45;;
75050;SDS011;63628;47.656;11.310;2022-09-29T18:00:13;4.55;;;1.58;;
75050;SDS011;63628;47.656;11.310;2022-09-29T18:02:42;3.00;;;1.38;;
75050;SDS011;63628;47.656;11.310;2022-09-29T18:05:09;2.00;;;1.30;;
75050;SDS011;63628;47.656;11.310;2022-09-29T18:07:36;2.70;;;1.60;;
75050;SDS011;63628;47.656;11.310;2022-09-29T18:10:08;3.20;;;1.40;;
75050;SDS011;63628;47.656;11.310;2022-09-29T18:12:43;2.65;;;1.50;;
75050;SDS011;63628;47.656;11.310;2022-09-29T18:15:09;4.38;;;2.03;;
75050;SDS011;63628;47.656;11.310;2022-09-29T18:17:36;3.33;;;1.20;;
75050;SDS011;63628;47.656;11.310;2022-09-29T18:20:36;0.90;;;0.60;;
75050;SDS011;63628;47.656;11.310;2022-09-29T18:22:57;1.13;;;0.93;;
75050;SDS011;63628;47.656;11.310;2022-09-29T18:25:29;1.65;;;0.82;;
75050;SDS011;63628;47.656;11.310;2022-09-29T18:27:56;1.70;;;0.70;;
75050;SDS011;63628;47.656;11.310;2022-09-29T18:30:27;0.82;;;0.50;;
75050;SDS011;63628;47.656;11.310;2022-09-29T18:33:00;0.73;;;0.60;;
75050;SDS011;63628;47.656;11.310;2022-09-29T18:35:28;1.40;;;0.50;;